sensor_id;sensor_type;location;lat;lon;timestamp;pressure;altitude;pressure_sealevel;temperature;humidity
21988;BME280;11158;53.404;-1.510;2023-05-29T00:00:30;101871.75;;;14.83;51.08
21988;BME280;11158;53.404;-1.510;2023-05-29T00:03:15;101875.41;;;14.59;51.85
21988;BME280;11158;53.404;-1.510;2023-05-29T00:06:02;101879.16;;;14.81;51.36
21988;BME280;11158;53.404;-1.510;2023-05-29T00:08:46;101877.84;;;15.32;50.11
21988;BME280;11158;53.404;-1.510;2023-05-29T00:11:30;101882.94;;;15.03;50.40
21988;BME280;11158;53.404;-1.510;2023-05-29T00:14:15;101878.03;;;14.76;51.13
21988;BME280;11158;53.404;-1.510;2023-05-29T00:16:59;101878.88;;;14.76;51.16
21988;BME280;11158;53.404;-1.510;2023-05-29T00:19:43;101881.75;;;14.98;50.56
21988;BME280;11158;53.404;-1.510;2023-05-29T00:22:27;101876.88;;;14.70;51.27
21988;BME280;11158;53.404;-1.510;2023-05-29T00:25:11;101878.84;;;14.29;52.42
21988;BME280;11158;53.404;-1.510;2023-05-29T00:27:55;101878.88;;;14.68;51.51
21988;BME280;11158;53.404;-1.510;2023-05-29T00:30:39;101881.19;;;14.79;51.11
21988;BME280;11158;53.404;-1.510;2023-05-29T00:33:24;101878.03;;;14.76;51.13
21988;BME280;11158;53.404;-1.510;2023-05-29T00:36:09;101883.97;;;14.63;51.45
21988;BME280;11158;53.404;-1.510;2023-05-29T00:38:54;101882.47;;;14.52;51.90
21988;BME280;11158;53.404;-1.510;2023-05-29T00:41:38;101886.84;;;14.45;52.14
21988;BME280;11158;53.404;-1.510;2023-05-29T00:44:22;101891.09;;;14.39;52.53
21988;BME280;11158;53.404;-1.510;2023-05-29T00:47:06;101881.19;;;14.79;51.27
21988;BME280;11158;53.404;-1.510;2023-05-29T00:49:51;101880.41;;;15.02;50.32
21988;BME280;11158;53.404;-1.510;2023-05-29T00:52:37;101879.69;;;15.08;50.00
21988;BME280;11158;53.404;-1.510;2023-05-29T00:55:22;101879.59;;;15.24;49.52
21988;BME280;11158;53.404;-1.510;2023-05-29T00:58:07;101877.06;;;15.23;49.22
21988;BME280;11158;53.404;-1.510;2023-05-29T01:00:51;101883.66;;;15.20;49.32
21988;BME280;11158;53.404;-1.510;2023-05-29T01:03:36;101882.41;;;15.31;48.99
21988;BME280;11158;53.404;-1.510;2023-05-29T01:06:21;101883.31;;;14.92;50.03
21988;BME280;11158;53.404;-1.510;2023-05-29T01:09:05;101884.53;;;14.90;50.27
21988;BME280;11158;53.404;-1.510;2023-05-29T01:23:53;101895.91;;;13.96;51.49
21988;BME280;11158;53.404;-1.510;2023-05-29T01:29:29;101901.09;;;14.06;51.19
21988;BME280;11158;53.404;-1.510;2023-05-29T01:32:16;101900.44;;;13.96;51.46
21988;BME280;11158;53.404;-1.510;2023-05-29T01:35:01;101903.81;;;13.98;51.31
21988;BME280;11158;53.404;-1.510;2023-05-29T01:37:45;101912.22;;;13.87;51.64
21988;BME280;11158;53.404;-1.510;2023-05-29T01:40:29;101898.63;;;13.88;51.57
21988;BME280;11158;53.404;-1.510;2023-05-29T01:43:14;101905.50;;;13.82;51.59
21988;BME280;11158;53.404;-1.510;2023-05-29T01:45:59;101902.28;;;14.03;51.05
21988;BME280;11158;53.404;-1.510;2023-05-29T01:48:44;101913.88;;;13.71;51.85
21988;BME280;11158;53.404;-1.510;2023-05-29T01:51:29;101912.41;;;13.77;51.48
21988;BME280;11158;53.404;-1.510;2023-05-29T01:54:15;101906.19;;;13.68;51.89
21988;BME280;11158;53.404;-1.510;2023-05-29T01:56:59;101912.41;;;12.85;53.85
21988;BME280;11158;53.404;-1.510;2023-05-29T01:59:44;101913.59;;;12.99;53.71
21988;BME280;11158;53.404;-1.510;2023-05-29T02:02:28;101900.03;;;13.09;53.32
21988;BME280;11158;53.404;-1.510;2023-05-29T02:05:12;101906.63;;;13.31;52.90
21988;BME280;11158;53.404;-1.510;2023-05-29T02:07:57;101903.28;;;13.37;52.35
21988;BME280;11158;53.404;-1.510;2023-05-29T02:10:41;101901.88;;;13.08;53.07
21988;BME280;11158;53.404;-1.510;2023-05-29T02:13:25;101905.41;;;13.17;52.77
21988;BME280;11158;53.404;-1.510;2023-05-29T02:16:10;101910.69;;;13.35;52.15
21988;BME280;11158;53.404;-1.510;2023-05-29T02:18:53;101897.94;;;13.37;51.83
21988;BME280;11158;53.404;-1.510;2023-05-29T02:21:38;101894.53;;;13.27;52.12
21988;BME280;11158;53.404;-1.510;2023-05-29T02:24:23;101886.50;;;13.35;51.94
21988;BME280;11158;53.404;-1.510;2023-05-29T02:27:07;101899.38;;;13.23;52.38
21988;BME280;11158;53.404;-1.510;2023-05-29T02:29:51;101906.13;;;13.27;52.38
21988;BME280;11158;53.404;-1.510;2023-05-29T02:32:35;101902.97;;;13.32;51.94
21988;BME280;11158;53.404;-1.510;2023-05-29T02:35:20;101908.84;;;13.60;50.91
21988;BME280;11158;53.404;-1.510;2023-05-29T02:38:06;101903.00;;;13.56;50.52
21988;BME280;11158;53.404;-1.510;2023-05-29T02:40:50;101908.50;;;12.71;52.79
21988;BME280;11158;53.404;-1.510;2023-05-29T02:43:34;101907.66;;;12.79;53.13
21988;BME280;11158;53.404;-1.510;2023-05-29T02:46:18;101912.78;;;12.56;53.59
21988;BME280;11158;53.404;-1.510;2023-05-29T02:49:03;101906.44;;;12.73;53.10
21988;BME280;11158;53.404;-1.510;2023-05-29T02:51:47;101914.25;;;12.93;52.41
21988;BME280;11158;53.404;-1.510;2023-05-29T02:54:31;101913.31;;;13.10;51.53
21988;BME280;11158;53.404;-1.510;2023-05-29T02:57:16;101912.97;;;13.21;51.29
21988;BME280;11158;53.404;-1.510;2023-05-29T03:00:00;101908.66;;;13.37;50.90
21988;BME280;11158;53.404;-1.510;2023-05-29T03:02:44;101910.00;;;13.33;51.11
21988;BME280;11158;53.404;-1.510;2023-05-29T03:05:28;101913.72;;;13.40;50.85
21988;BME280;11158;53.404;-1.510;2023-05-29T03:08:12;101916.91;;;13.44;51.23
21988;BME280;11158;53.404;-1.510;2023-05-29T03:10:57;101908.13;;;13.25;51.12
21988;BME280;11158;53.404;-1.510;2023-05-29T03:13:41;101912.16;;;12.70;52.43
21988;BME280;11158;53.404;-1.510;2023-05-29T03:16:25;101909.34;;;12.46;52.92
21988;BME280;11158;53.404;-1.510;2023-05-29T03:19:13;101900.41;;;12.03;54.22
21988;BME280;11158;53.404;-1.510;2023-05-29T03:21:57;101897.03;;;12.27;53.52
21988;BME280;11158;53.404;-1.510;2023-05-29T03:24:41;101895.75;;;12.39;53.18
21988;BME280;11158;53.404;-1.510;2023-05-29T03:27:25;101899.00;;;12.51;53.02
21988;BME280;11158;53.404;-1.510;2023-05-29T03:30:10;101903.75;;;12.31;53.65
21988;BME280;11158;53.404;-1.510;2023-05-29T03:32:55;101895.38;;;12.68;53.26
21988;BME280;11158;53.404;-1.510;2023-05-29T03:35:39;101901.28;;;12.72;52.16
21988;BME280;11158;53.404;-1.510;2023-05-29T03:38:23;101902.94;;;12.73;52.22
21988;BME280;11158;53.404;-1.510;2023-05-29T03:41:07;101907.75;;;13.12;51.01
21988;BME280;11158;53.404;-1.510;2023-05-29T03:43:51;101907.44;;;13.15;51.64
21988;BME280;11158;53.404;-1.510;2023-05-29T03:46:35;101906.84;;;13.46;50.75
21988;BME280;11158;53.404;-1.510;2023-05-29T03:49:19;101909.22;;;12.90;52.40
21988;BME280;11158;53.404;-1.510;2023-05-29T03:52:04;101906.09;;;13.19;51.74
21988;BME280;11158;53.404;-1.510;2023-05-29T03:54:48;101909.00;;;13.34;51.51
21988;BME280;11158;53.404;-1.510;2023-05-29T03:57:32;101910.19;;;13.56;50.94
21988;BME280;11158;53.404;-1.510;2023-05-29T04:00:16;101915.03;;;13.28;51.95
21988;BME280;11158;53.404;-1.510;2023-05-29T04:03:02;101913.03;;;13.46;51.54
21988;BME280;11158;53.404;-1.510;2023-05-29T04:05:46;101918.09;;;13.66;51.07
21988;BME280;11158;53.404;-1.510;2023-05-29T04:08:30;101912.03;;;13.72;50.89
21988;BME280;11158;53.404;-1.510;2023-05-29T04:11:15;101920.44;;;13.69;50.88
21988;BME280;11158;53.404;-1.510;2023-05-29T04:14:02;101915.59;;;13.72;50.16
21988;BME280;11158;53.404;-1.510;2023-05-29T04:16:46;101925.84;;;13.77;50.12
21988;BME280;11158;53.404;-1.510;2023-05-29T04:19:30;101924.31;;;13.91;49.63
21988;BME280;11158;53.404;-1.510;2023-05-29T04:22:14;101931.69;;;14.13;49.11
21988;BME280;11158;53.404;-1.510;2023-05-29T04:24:59;101926.50;;;13.95;49.17
21988;BME280;11158;53.404;-1.510;2023-05-29T04:27:46;101933.69;;;14.03;49.07
21988;BME280;11158;53.404;-1.510;2023-05-29T04:30:32;101937.53;;;14.09;48.90
21988;BME280;11158;53.404;-1.510;2023-05-29T04:33:19;101931.81;;;14.20;48.71
21988;BME280;11158;53.404;-1.510;2023-05-29T04:36:05;101933.19;;;14.16;48.59
21988;BME280;11158;53.404;-1.510;2023-05-29T04:38:49;101933.81;;;14.26;48.57
21988;BME280;11158;53.404;-1.510;2023-05-29T04:41:34;101937.91;;;14.14;48.79
21988;BME280;11158;53.404;-1.510;2023-05-29T04:44:19;101943.47;;;13.63;50.23
21988;BME280;11158;53.404;-1.510;2023-05-29T04:47:03;101939.91;;;14.03;49.44
21988;BME280;11158;53.404;-1.510;2023-05-29T04:49:48;101936.84;;;14.31;48.67
21988;BME280;11158;53.404;-1.510;2023-05-29T04:52:36;101938.28;;;14.66;47.94
21988;BME280;11158;53.404;-1.510;2023-05-29T04:55:21;101939.69;;;14.94;47.48
21988;BME280;11158;53.404;-1.510;2023-05-29T04:58:07;101935.28;;;15.01;47.42
21988;BME280;11158;53.404;-1.510;2023-05-29T05:00:52;101940.09;;;14.82;48.17
21988;BME280;11158;53.404;-1.510;2023-05-29T05:03:36;101938.19;;;15.22;47.60
21988;BME280;11158;53.404;-1.510;2023-05-29T05:06:20;101936.31;;;15.69;46.26
21988;BME280;11158;53.404;-1.510;2023-05-29T05:09:04;101940.06;;;15.68;45.81
21988;BME280;11158;53.404;-1.510;2023-05-29T05:11:48;101946.13;;;15.93;45.11
21988;BME280;11158;53.404;-1.510;2023-05-29T05:14:33;101948.75;;;16.01;44.97
21988;BME280;11158;53.404;-1.510;2023-05-29T05:17:17;101945.22;;;16.16;44.74
21988;BME280;11158;53.404;-1.510;2023-05-29T05:20:01;101948.28;;;16.12;44.28
21988;BME280;11158;53.404;-1.510;2023-05-29T05:22:45;101940.75;;;15.62;45.51
21988;BME280;11158;53.404;-1.510;2023-05-29T05:25:29;101943.72;;;15.75;45.22
21988;BME280;11158;53.404;-1.510;2023-05-29T05:28:13;101940.59;;;15.63;45.17
21988;BME280;11158;53.404;-1.510;2023-05-29T05:30:57;101951.06;;;15.35;46.11
21988;BME280;11158;53.404;-1.510;2023-05-29T05:33:41;101951.91;;;15.59;45.62
21988;BME280;11158;53.404;-1.510;2023-05-29T05:36:25;101938.78;;;16.02;44.80
21988;BME280;11158;53.404;-1.510;2023-05-29T05:39:10;101943.19;;;16.18;44.24
21988;BME280;11158;53.404;-1.510;2023-05-29T05:41:55;101935.78;;;15.27;45.49
21988;BME280;11158;53.404;-1.510;2023-05-29T05:44:39;101947.69;;;15.10;46.29
21988;BME280;11158;53.404;-1.510;2023-05-29T05:47:23;101949.22;;;14.65;47.08
21988;BME280;11158;53.404;-1.510;2023-05-29T05:50:07;101947.03;;;14.69;47.09
21988;BME280;11158;53.404;-1.510;2023-05-29T05:52:52;101948.94;;;14.91;46.65
21988;BME280;11158;53.404;-1.510;2023-05-29T05:55:37;101951.19;;;14.79;46.84
21988;BME280;11158;53.404;-1.510;2023-05-29T05:58:21;101946.50;;;14.73;47.08
21988;BME280;11158;53.404;-1.510;2023-05-29T06:01:05;101944.03;;;15.03;45.77
21988;BME280;11158;53.404;-1.510;2023-05-29T06:03:51;101957.28;;;14.65;47.05
21988;BME280;11158;53.404;-1.510;2023-05-29T06:06:35;101945.97;;;15.72;44.38
21988;BME280;11158;53.404;-1.510;2023-05-29T06:09:19;101949.38;;;15.34;45.05
21988;BME280;11158;53.404;-1.510;2023-05-29T06:12:03;101955.25;;;15.38;45.36
21988;BME280;11158;53.404;-1.510;2023-05-29T06:14:47;101952.34;;;15.16;45.72
21988;BME280;11158;53.404;-1.510;2023-05-29T06:17:31;101960.16;;;15.34;45.08
21988;BME280;11158;53.404;-1.510;2023-05-29T06:20:16;101962.59;;;15.75;44.09
21988;BME280;11158;53.404;-1.510;2023-05-29T06:23:00;101954.56;;;16.43;42.90
21988;BME280;11158;53.404;-1.510;2023-05-29T06:25:44;101957.19;;;16.81;41.66
21988;BME280;11158;53.404;-1.510;2023-05-29T06:28:29;101960.03;;;16.34;42.55
21988;BME280;11158;53.404;-1.510;2023-05-29T06:31:13;101953.50;;;15.53;44.59
21988;BME280;11158;53.404;-1.510;2023-05-29T06:33:57;101961.75;;;15.98;44.16
21988;BME280;11158;53.404;-1.510;2023-05-29T06:36:42;101953.66;;;16.65;42.71
21988;BME280;11158;53.404;-1.510;2023-05-29T06:39:26;101960.31;;;15.87;43.64
21988;BME280;11158;53.404;-1.510;2023-05-29T06:42:10;101960.06;;;16.49;42.27
21988;BME280;11158;53.404;-1.510;2023-05-29T06:44:54;101961.09;;;17.72;38.97
21988;BME280;11158;53.404;-1.510;2023-05-29T06:47:39;101959.00;;;18.80;36.47
21988;BME280;11158;53.404;-1.510;2023-05-29T06:50:24;101961.81;;;20.02;35.42
21988;BME280;11158;53.404;-1.510;2023-05-29T06:53:09;101966.34;;;17.95;38.49
21988;BME280;11158;53.404;-1.510;2023-05-29T06:55:53;101965.09;;;19.51;35.51
21988;BME280;11158;53.404;-1.510;2023-05-29T06:58:37;101971.03;;;19.06;36.84
21988;BME280;11158;53.404;-1.510;2023-05-29T07:01:21;101973.72;;;16.78;40.11
21988;BME280;11158;53.404;-1.510;2023-05-29T07:04:06;101969.78;;;18.39;37.72
21988;BME280;11158;53.404;-1.510;2023-05-29T07:06:51;101968.72;;;17.04;40.42
21988;BME280;11158;53.404;-1.510;2023-05-29T07:09:35;101967.25;;;19.07;37.27
21988;BME280;11158;53.404;-1.510;2023-05-29T07:12:19;101959.72;;;20.04;34.25
21988;BME280;11158;53.404;-1.510;2023-05-29T07:15:03;101973.59;;;18.45;37.64
21988;BME280;11158;53.404;-1.510;2023-05-29T07:17:47;101966.94;;;19.43;36.39
21988;BME280;11158;53.404;-1.510;2023-05-29T07:20:32;101978.94;;;16.34;42.38
21988;BME280;11158;53.404;-1.510;2023-05-29T07:23:16;101969.69;;;19.57;36.76
21988;BME280;11158;53.404;-1.510;2023-05-29T07:26:00;101957.81;;;20.44;33.76
21988;BME280;11158;53.404;-1.510;2023-05-29T07:28:44;101984.78;;;17.27;39.08
21988;BME280;11158;53.404;-1.510;2023-05-29T07:31:28;101975.72;;;17.56;39.19
21988;BME280;11158;53.404;-1.510;2023-05-29T07:34:12;101979.97;;;18.37;38.96
21988;BME280;11158;53.404;-1.510;2023-05-29T07:36:59;101984.53;;;17.44;40.14
21988;BME280;11158;53.404;-1.510;2023-05-29T07:39:44;101975.59;;;18.99;37.91
21988;BME280;11158;53.404;-1.510;2023-05-29T07:42:28;101969.91;;;19.55;36.34
21988;BME280;11158;53.404;-1.510;2023-05-29T07:45:12;101984.94;;;18.61;38.56
21988;BME280;11158;53.404;-1.510;2023-05-29T07:47:57;101983.84;;;16.84;41.52
21988;BME280;11158;53.404;-1.510;2023-05-29T07:50:41;101983.13;;;16.37;42.94
21988;BME280;11158;53.404;-1.510;2023-05-29T07:53:25;101997.53;;;14.98;45.16
21988;BME280;11158;53.404;-1.510;2023-05-29T07:56:09;102000.16;;;15.45;43.96
21988;BME280;11158;53.404;-1.510;2023-05-29T07:58:54;101999.28;;;16.22;42.34
21988;BME280;11158;53.404;-1.510;2023-05-29T08:01:38;101988.75;;;15.12;43.93
21988;BME280;11158;53.404;-1.510;2023-05-29T08:04:27;102003.78;;;14.98;44.93
21988;BME280;11158;53.404;-1.510;2023-05-29T08:07:11;102003.41;;;14.13;46.04
21988;BME280;11158;53.404;-1.510;2023-05-29T08:09:56;102010.53;;;14.86;45.62
21988;BME280;11158;53.404;-1.510;2023-05-29T08:12:39;102002.38;;;15.96;42.84
21988;BME280;11158;53.404;-1.510;2023-05-29T08:15:24;102004.06;;;15.43;43.58
21988;BME280;11158;53.404;-1.510;2023-05-29T08:18:10;102006.41;;;15.77;42.03
21988;BME280;11158;53.404;-1.510;2023-05-29T08:20:53;102018.03;;;14.59;44.46
21988;BME280;11158;53.404;-1.510;2023-05-29T08:23:38;102011.53;;;15.33;43.04
21988;BME280;11158;53.404;-1.510;2023-05-29T08:26:22;102016.34;;;15.14;42.36
21988;BME280;11158;53.404;-1.510;2023-05-29T08:29:06;102014.53;;;15.38;42.65
21988;BME280;11158;53.404;-1.510;2023-05-29T08:31:50;102024.13;;;16.85;39.65
21988;BME280;11158;53.404;-1.510;2023-05-29T08:34:34;102015.50;;;17.41;38.76
21988;BME280;11158;53.404;-1.510;2023-05-29T08:37:19;102014.16;;;18.38;37.49
21988;BME280;11158;53.404;-1.510;2023-05-29T08:40:04;102004.78;;;18.12;36.42
21988;BME280;11158;53.404;-1.510;2023-05-29T08:45:54;102026.22;;;15.84;41.20
21988;BME280;11158;53.404;-1.510;2023-05-29T08:48:40;102025.91;;;16.02;41.63
21988;BME280;11158;53.404;-1.510;2023-05-29T08:51:31;102021.25;;;16.87;40.55
21988;BME280;11158;53.404;-1.510;2023-05-29T08:54:16;102017.41;;;16.13;41.43
21988;BME280;11158;53.404;-1.510;2023-05-29T08:57:01;102018.75;;;15.63;42.80
21988;BME280;11158;53.404;-1.510;2023-05-29T08:59:46;102019.50;;;16.41;41.18
21988;BME280;11158;53.404;-1.510;2023-05-29T09:02:32;102007.47;;;17.48;38.18
21988;BME280;11158;53.404;-1.510;2023-05-29T09:05:17;102009.56;;;17.89;37.73
21988;BME280;11158;53.404;-1.510;2023-05-29T09:08:02;102017.47;;;15.82;41.60
21988;BME280;11158;53.404;-1.510;2023-05-29T09:10:48;102019.72;;;16.17;41.39
21988;BME280;11158;53.404;-1.510;2023-05-29T09:13:32;102021.72;;;15.45;42.77
21988;BME280;11158;53.404;-1.510;2023-05-29T09:16:16;102027.91;;;15.54;43.35
21988;BME280;11158;53.404;-1.510;2023-05-29T09:19:05;102025.69;;;15.35;43.35
21988;BME280;11158;53.404;-1.510;2023-05-29T09:21:50;102005.63;;;17.33;39.93
21988;BME280;11158;53.404;-1.510;2023-05-29T09:24:36;102015.44;;;18.42;37.92
21988;BME280;11158;53.404;-1.510;2023-05-29T09:27:21;102006.81;;;18.60;37.20
21988;BME280;11158;53.404;-1.510;2023-05-29T09:30:09;102012.03;;;18.33;37.45
21988;BME280;11158;53.404;-1.510;2023-05-29T09:32:54;102003.50;;;18.08;38.21
21988;BME280;11158;53.404;-1.510;2023-05-29T09:35:43;102007.91;;;17.88;37.93
21988;BME280;11158;53.404;-1.510;2023-05-29T09:38:29;102010.53;;;16.26;41.02
21988;BME280;11158;53.404;-1.510;2023-05-29T09:41:20;102016.38;;;16.15;41.16
21988;BME280;11158;53.404;-1.510;2023-05-29T09:44:06;102010.63;;;17.00;40.08
21988;BME280;11158;53.404;-1.510;2023-05-29T09:46:57;102014.97;;;15.81;42.23
21988;BME280;11158;53.404;-1.510;2023-05-29T09:49:42;102013.63;;;16.23;41.38
21988;BME280;11158;53.404;-1.510;2023-05-29T09:52:29;102007.66;;;17.83;38.05
21988;BME280;11158;53.404;-1.510;2023-05-29T09:55:14;102006.66;;;18.40;37.42
21988;BME280;11158;53.404;-1.510;2023-05-29T09:58:01;102000.25;;;17.91;37.66
21988;BME280;11158;53.404;-1.510;2023-05-29T10:00:47;102005.91;;;17.38;39.05
21988;BME280;11158;53.404;-1.510;2023-05-29T10:03:45;101998.59;;;17.75;38.20
21988;BME280;11158;53.404;-1.510;2023-05-29T10:06:32;102002.06;;;17.48;38.78
21988;BME280;11158;53.404;-1.510;2023-05-29T10:09:20;102000.25;;;18.19;37.53
21988;BME280;11158;53.404;-1.510;2023-05-29T10:12:06;101991.91;;;17.93;38.35
21988;BME280;11158;53.404;-1.510;2023-05-29T10:14:59;102006.34;;;16.08;41.05
21988;BME280;11158;53.404;-1.510;2023-05-29T10:18:03;102000.81;;;15.24;43.82
21988;BME280;11158;53.404;-1.510;2023-05-29T10:20:56;101996.69;;;16.29;42.34
21988;BME280;11158;53.404;-1.510;2023-05-29T10:23:47;101983.41;;;16.72;40.36
21988;BME280;11158;53.404;-1.510;2023-05-29T10:26:34;101993.47;;;16.78;41.41
21988;BME280;11158;53.404;-1.510;2023-05-29T10:35:08;101999.47;;;16.21;43.10
21988;BME280;11158;53.404;-1.510;2023-05-29T10:37:59;101993.00;;;16.45;42.31
21988;BME280;11158;53.404;-1.510;2023-05-29T10:40:46;101993.72;;;16.53;41.01
21988;BME280;11158;53.404;-1.510;2023-05-29T10:43:32;101990.94;;;16.47;40.18
21988;BME280;11158;53.404;-1.510;2023-05-29T10:46:17;102001.66;;;15.79;42.40
21988;BME280;11158;53.404;-1.510;2023-05-29T10:49:01;102000.25;;;16.44;41.55
21988;BME280;11158;53.404;-1.510;2023-05-29T10:51:45;101995.28;;;16.33;42.55
21988;BME280;11158;53.404;-1.510;2023-05-29T10:54:40;101989.69;;;17.60;39.28
21988;BME280;11158;53.404;-1.510;2023-05-29T10:57:24;101981.88;;;17.87;38.47
21988;BME280;11158;53.404;-1.510;2023-05-29T11:00:10;101977.84;;;18.32;36.81
21988;BME280;11158;53.404;-1.510;2023-05-29T11:03:04;101980.13;;;18.29;38.04
21988;BME280;11158;53.404;-1.510;2023-05-29T11:08:56;101983.84;;;18.21;37.19
21988;BME280;11158;53.404;-1.510;2023-05-29T11:11:41;101977.50;;;17.86;38.63
21988;BME280;11158;53.404;-1.510;2023-05-29T11:14:28;101986.78;;;17.40;39.08
21988;BME280;11158;53.404;-1.510;2023-05-29T11:17:29;101988.25;;;16.62;40.41
21988;BME280;11158;53.404;-1.510;2023-05-29T11:20:36;101976.81;;;16.60;41.75
21988;BME280;11158;53.404;-1.510;2023-05-29T11:23:22;101980.09;;;16.70;41.37
21988;BME280;11158;53.404;-1.510;2023-05-29T11:26:09;101983.31;;;17.83;39.46
21988;BME280;11158;53.404;-1.510;2023-05-29T11:29:14;101973.03;;;18.21;38.43
21988;BME280;11158;53.404;-1.510;2023-05-29T11:32:12;101981.50;;;16.95;40.19
21988;BME280;11158;53.404;-1.510;2023-05-29T11:35:00;101977.63;;;17.77;39.39
21988;BME280;11158;53.404;-1.510;2023-05-29T11:37:47;101982.97;;;16.83;39.74
21988;BME280;11158;53.404;-1.510;2023-05-29T11:40:36;101973.34;;;16.36;41.06
21988;BME280;11158;53.404;-1.510;2023-05-29T11:43:22;101984.00;;;17.91;38.33
21988;BME280;11158;53.404;-1.510;2023-05-29T11:46:19;101973.59;;;17.30;39.70
21988;BME280;11158;53.404;-1.510;2023-05-29T11:49:04;101973.25;;;16.44;41.66
21988;BME280;11158;53.404;-1.510;2023-05-29T11:51:48;101983.69;;;16.62;41.04
21988;BME280;11158;53.404;-1.510;2023-05-29T11:54:33;101976.78;;;17.19;40.40
21988;BME280;11158;53.404;-1.510;2023-05-29T11:57:21;101967.75;;;17.70;38.96
21988;BME280;11158;53.404;-1.510;2023-05-29T12:00:07;101970.06;;;18.44;38.36
21988;BME280;11158;53.404;-1.510;2023-05-29T12:02:57;101961.25;;;17.86;38.46
21988;BME280;11158;53.404;-1.510;2023-05-29T12:05:45;101964.56;;;17.23;39.52
21988;BME280;11158;53.404;-1.510;2023-05-29T12:08:31;101965.88;;;17.49;39.21
21988;BME280;11158;53.404;-1.510;2023-05-29T12:11:23;101966.50;;;17.87;39.42
21988;BME280;11158;53.404;-1.510;2023-05-29T12:14:07;101967.19;;;17.96;39.32
21988;BME280;11158;53.404;-1.510;2023-05-29T12:16:51;101961.44;;;18.34;38.21
21988;BME280;11158;53.404;-1.510;2023-05-29T12:19:36;101938.09;;;19.16;36.26
21988;BME280;11158;53.404;-1.510;2023-05-29T12:22:32;101950.13;;;18.58;37.14
21988;BME280;11158;53.404;-1.510;2023-05-29T12:25:21;101954.47;;;18.53;37.10
21988;BME280;11158;53.404;-1.510;2023-05-29T12:28:06;101948.84;;;18.54;37.34
21988;BME280;11158;53.404;-1.510;2023-05-29T12:30:50;101951.72;;;17.47;40.06
21988;BME280;11158;53.404;-1.510;2023-05-29T12:33:35;101958.41;;;17.72;38.98
21988;BME280;11158;53.404;-1.510;2023-05-29T12:36:25;101942.28;;;18.70;37.18
21988;BME280;11158;53.404;-1.510;2023-05-29T12:39:10;101946.13;;;18.89;37.01
21988;BME280;11158;53.404;-1.510;2023-05-29T12:41:54;101957.16;;;17.90;38.84
21988;BME280;11158;53.404;-1.510;2023-05-29T12:44:38;101947.28;;;18.04;38.75
21988;BME280;11158;53.404;-1.510;2023-05-29T12:47:23;101947.03;;;18.27;38.04
21988;BME280;11158;53.404;-1.510;2023-05-29T12:50:25;101940.34;;;19.05;36.07
21988;BME280;11158;53.404;-1.510;2023-05-29T12:53:12;101931.03;;;19.28;35.54
21988;BME280;11158;53.404;-1.510;2023-05-29T12:55:57;101944.56;;;18.04;37.63
21988;BME280;11158;53.404;-1.510;2023-05-29T12:58:42;101942.25;;;18.00;36.99
21988;BME280;11158;53.404;-1.510;2023-05-29T13:01:26;101953.28;;;17.99;39.27
21988;BME280;11158;53.404;-1.510;2023-05-29T13:04:10;101943.84;;;18.51;38.13
21988;BME280;11158;53.404;-1.510;2023-05-29T13:06:56;101959.16;;;17.81;38.10
21988;BME280;11158;53.404;-1.510;2023-05-29T13:09:41;101938.94;;;18.68;35.50
21988;BME280;11158;53.404;-1.510;2023-05-29T13:12:25;101952.19;;;18.56;36.15
21988;BME280;11158;53.404;-1.510;2023-05-29T13:15:11;101941.56;;;19.71;34.40
21988;BME280;11158;53.404;-1.510;2023-05-29T13:17:57;101935.47;;;19.36;35.94
21988;BME280;11158;53.404;-1.510;2023-05-29T13:20:41;101937.66;;;18.64;35.06
21988;BME280;11158;53.404;-1.510;2023-05-29T13:23:25;101940.50;;;18.84;35.71
21988;BME280;11158;53.404;-1.510;2023-05-29T13:26:09;101946.19;;;18.26;37.89
21988;BME280;11158;53.404;-1.510;2023-05-29T13:28:54;101954.81;;;18.43;36.97
21988;BME280;11158;53.404;-1.510;2023-05-29T13:31:38;101943.38;;;18.82;37.21
21988;BME280;11158;53.404;-1.510;2023-05-29T13:34:22;101956.31;;;18.17;37.50
21988;BME280;11158;53.404;-1.510;2023-05-29T13:37:12;101952.34;;;18.13;38.71
21988;BME280;11158;53.404;-1.510;2023-05-29T13:39:58;101949.06;;;18.94;36.17
21988;BME280;11158;53.404;-1.510;2023-05-29T13:42:42;101944.81;;;19.20;36.47
21988;BME280;11158;53.404;-1.510;2023-05-29T13:45:27;101941.81;;;18.67;37.11
21988;BME280;11158;53.404;-1.510;2023-05-29T13:48:11;101947.28;;;18.73;37.02
21988;BME280;11158;53.404;-1.510;2023-05-29T13:50:55;101949.97;;;19.15;35.87
21988;BME280;11158;53.404;-1.510;2023-05-29T13:53:39;101950.13;;;18.93;36.65
21988;BME280;11158;53.404;-1.510;2023-05-29T13:56:23;101955.47;;;18.45;36.69
21988;BME280;11158;53.404;-1.510;2023-05-29T13:59:10;101951.09;;;18.51;37.48
21988;BME280;11158;53.404;-1.510;2023-05-29T14:01:54;101951.75;;;18.53;37.30
21988;BME280;11158;53.404;-1.510;2023-05-29T14:04:39;101942.88;;;19.07;35.67
21988;BME280;11158;53.404;-1.510;2023-05-29T14:07:23;101957.25;;;18.31;37.12
21988;BME280;11158;53.404;-1.510;2023-05-29T14:10:08;101948.56;;;19.32;34.52
21988;BME280;11158;53.404;-1.510;2023-05-29T14:12:53;101958.59;;;18.42;35.75
21988;BME280;11158;53.404;-1.510;2023-05-29T14:15:37;101943.50;;;18.68;35.35
21988;BME280;11158;53.404;-1.510;2023-05-29T14:18:21;101942.09;;;19.27;34.04
21988;BME280;11158;53.404;-1.510;2023-05-29T14:21:06;101942.97;;;19.40;34.69
21988;BME280;11158;53.404;-1.510;2023-05-29T14:23:50;101941.88;;;19.28;33.48
21988;BME280;11158;53.404;-1.510;2023-05-29T14:26:34;101937.09;;;19.30;33.79
21988;BME280;11158;53.404;-1.510;2023-05-29T14:29:19;101944.34;;;19.10;34.37
21988;BME280;11158;53.404;-1.510;2023-05-29T14:32:04;101942.63;;;18.95;34.94
21988;BME280;11158;53.404;-1.510;2023-05-29T14:34:48;101936.31;;;19.56;33.66
21988;BME280;11158;53.404;-1.510;2023-05-29T14:37:32;101932.41;;;18.97;34.23
21988;BME280;11158;53.404;-1.510;2023-05-29T14:40:16;101937.06;;;18.69;33.79